Jinjya Maru — JI3550 — position and weather

sailwx.info

Track history (hours):
 
Tides and Currents Weather Stations Pressure Air Temp Water Temp Dewpoint Dewpoint Depression Visibility Wind Speed Wind Dir Waves Ship Positions

Jinjya Maru

Last reported at 2018-Feb-23 02:34 UTC. Time now 2018-Feb-23 22:33 UTC.
Position N 34°11' E 132°36'.

Length 48 m.

Type: Tanker. MMSI: 431300336.

Date/timePositionNaut miles runAvg speedWind from/ knotsBaromVisibWave heightAir tempDewpointWater temp
2018-Feb-23 02:34N 34°11' E 132°36'111.0
2018-Feb-23 02:30N 34°11' E 132°35'4 9.0
2018-Feb-23 02:01N 34°13' E 132°31'510.5
2018-Feb-23 01:30N 34°19' E 132°29'3 6.2
2018-Feb-23 00:57N 34°22' E 132°31'0 0.0
2018-Feb-23 00:27N 34°22' E 132°31'0 0.0
2018-Feb-22 23:58N 34°22' E 132°31'0 0.0
2018-Feb-22 23:28N 34°22' E 132°31'2 4.7
2018-Feb-22 23:00N 34°20' E 132°29'1 2.0
2018-Feb-22 22:31N 34°19' E 132°29'0 0.1
2018-Feb-22 22:01N 34°19' E 132°29'0 0.1
2018-Feb-22 21:25N 34°19' E 132°29'0 0.1
2018-Feb-22 21:01N 34°19' E 132°29'0 0.0
2018-Feb-22 20:28N 34°19' E 132°29'0 0.1
2018-Feb-22 20:00N 34°19' E 132°29'0 0.1
2018-Feb-22 19:30N 34°19' E 132°29'0 0.0
2018-Feb-22 19:00N 34°19' E 132°29'0 0.1
2018-Feb-22 18:30N 34°19' E 132°29'0 0.0
2018-Feb-22 18:00N 34°19' E 132°29'0 0.0
2018-Feb-22 17:30N 34°19' E 132°29'0 0.0
2018-Feb-22 17:00N 34°19' E 132°29'4 7.2
2018-Feb-22 16:29N 34°15' E 132°31'4 8.7
2018-Feb-22 16:00N 34°11' E 132°32'96 8.8
2018-Feb-22 05:06N 34°27' E 134°27'310.1
2018-Feb-22 04:51N 34°28' E 134°30'410.3
2018-Feb-22 04:28N 34°30' E 134°34'510.3
2018-Feb-22 04:00N 34°31' E 134°39'510.5
2018-Feb-22 03:30N 34°33' E 134°45'611.7
2018-Feb-22 02:59N 34°36' E 134°52'612.1
2018-Feb-22 02:30N 34°37' E 134°59'611.2
2018-Feb-22 01:59N 34°36' E 135°06'510.3
2018-Feb-22 01:30N 34°36' E 135°12'510.0
2018-Feb-22 01:00N 34°36' E 135°18'510.0
2018-Feb-22 00:30N 34°36' E 135°24'2 4.7
2018-Feb-21 23:59N 34°34' E 135°26'0 0.0
2018-Feb-21 23:29N 34°34' E 135°26'0 0.0
2018-Feb-21 22:59N 34°34' E 135°26'0 0.1
2018-Feb-21 22:30N 34°34' E 135°26'0 0.7
2018-Feb-21 21:52N 34°35' E 135°25'0 0.0
2018-Feb-21 21:28N 34°35' E 135°25'0 0.0
2018-Feb-21 20:55N 34°35' E 135°25'0 0.0
2018-Feb-21 20:30N 34°35' E 135°25'0 0.0
2018-Feb-21 20:00N 34°35' E 135°25'0 0.0
2018-Feb-21 19:27N 34°35' E 135°25'0 0.0
2018-Feb-21 19:00N 34°35' E 135°25'0 0.0
2018-Feb-21 18:30N 34°35' E 135°25'0 0.0
2018-Feb-21 17:57N 34°35' E 135°25'0 0.0
2018-Feb-21 17:30N 34°35' E 135°25'0 0.0
2018-Feb-21 17:00N 34°35' E 135°25'0 0.0
2018-Feb-21 16:30N 34°35' E 135°25'3 6.2
2018-Feb-21 16:00N 34°36' E 135°22'5 9.5
2018-Feb-21 15:30N 34°36' E 135°16'5 9.6
2018-Feb-21 15:00N 34°36' E 135°11'510.0
2018-Feb-21 14:30N 34°36' E 135°05'4 7.6
2018-Feb-21 14:00N 34°37' E 135°00'4 8.2
2018-Feb-21 13:30N 34°36' E 134°55'4 9.0
2018-Feb-21 13:00N 34°34' E 134°51'5 9.3
2018-Feb-21 12:30N 34°32' E 134°45'5 9.7
2018-Feb-21 12:00N 34°30' E 134°40'5 9.6
2018-Feb-21 11:27N 34°28' E 134°34'99 6.9
2018-Feb-20 20:58N 33°51' E 132°42'3 1.3
2018-Feb-20 18:52N 33°54' E 132°42'410.3
2018-Feb-20 18:29N 33°58' E 132°44'93 7.8
2018-Feb-20 06:38N 34°28' E 134°30'1 8.9
2018-Feb-20 06:30N 34°29' E 134°31'4 9.0
2018-Feb-20 06:00N 34°30' E 134°36'4 8.9
2018-Feb-20 05:30N 34°32' E 134°41'5 9.5
2018-Feb-20 04:59N 34°33' E 134°47'510.2
2018-Feb-20 04:30N 34°35' E 134°52'510.2
2018-Feb-20 04:00N 34°37' E 134°58'510.1
2018-Feb-20 03:30N 34°36' E 135°04'5 9.2
2018-Feb-20 03:00N 34°36' E 135°10'5 9.3
2018-Feb-20 02:30N 34°37' E 135°15'5 9.3
2018-Feb-20 02:00N 34°36' E 135°21'4 7.5
2018-Feb-20 01:29N 34°35' E 135°25'0 0.0
2018-Feb-20 01:00N 34°35' E 135°25'1 1.5
2018-Feb-20 00:29N 34°34' E 135°26'0 0.0
2018-Feb-19 23:59N 34°34' E 135°26'0 0.0
2018-Feb-19 23:29N 34°34' E 135°26'0 0.0
2018-Feb-19 22:59N 34°34' E 135°26'0 0.1
2018-Feb-19 22:28N 34°34' E 135°26'0 0.8
2018-Feb-19 21:57N 34°35' E 135°25'0 0.0
2018-Feb-19 21:21N 34°35' E 135°25'0 0.0
2018-Feb-19 20:57N 34°35' E 135°25'0 0.0
2018-Feb-19 20:30N 34°35' E 135°25'0 0.0
2018-Feb-19 19:57N 34°35' E 135°25'0 0.0
2018-Feb-19 19:27N 34°35' E 135°25'0 0.3
2018-Feb-19 19:00N 34°35' E 135°25'3 6.1
2018-Feb-19 18:30N 34°34' E 135°22'5 9.6
2018-Feb-19 18:00N 34°31' E 135°17'5 9.4
2018-Feb-19 17:30N 34°27' E 135°13'5 9.4
2018-Feb-19 17:00N 34°24' E 135°09'5 9.3
2018-Feb-19 16:31N 34°20' E 135°06'5 9.1
2018-Feb-19 16:00N 34°16' E 135°03'5 9.8
2018-Feb-19 15:29N 34°12' E 135°00'6 9.8
2018-Feb-19 14:52N 34°06' E 134°57'4 0.1
2018-Feb-18 05:27N 34°04' E 134°54'4 9.8
2018-Feb-18 05:00N 34°08' E 134°57'5 9.9
2018-Feb-18 04:29N 34°12' E 134°60'5 9.8
2018-Feb-18 04:00N 34°16' E 135°03'510.7
2018-Feb-18 03:29N 34°21' E 135°06'5 9.6
2018-Feb-18 03:00N 34°24' E 135°10'5 9.2
2018-Feb-18 02:30N 34°28' E 135°13'5 9.3
2018-Feb-18 02:00N 34°31' E 135°18'4 9.1
2018-Feb-18 01:30N 34°34' E 135°22'3 6.7
2018-Feb-18 01:00N 34°35' E 135°25'1 1.8
2018-Feb-18 00:28N 34°34' E 135°26'0 0.0
2018-Feb-17 23:58N 34°34' E 135°26'0 0.0
2018-Feb-17 23:28N 34°34' E 135°26'0 0.0
2018-Feb-17 22:58N 34°34' E 135°26'0 0.2
2018-Feb-17 22:28N 34°34' E 135°26'0 0.7
2018-Feb-17 21:56N 34°35' E 135°25'0 0.1
2018-Feb-17 21:29N 34°35' E 135°25'0 0.0
2018-Feb-17 20:59N 34°35' E 135°25'0 0.0
2018-Feb-17 20:29N 34°35' E 135°25'0 0.0
2018-Feb-17 20:00N 34°35' E 135°25'0 0.0
2018-Feb-17 19:27N 34°35' E 135°25'0 0.0
2018-Feb-17 19:00N 34°35' E 135°25'0 0.0
2018-Feb-17 18:27N 34°35' E 135°25'0 0.0
2018-Feb-17 17:57N 34°35' E 135°25'0 0.0
2018-Feb-17 17:30N 34°35' E 135°25'0 0.0
2018-Feb-17 17:00N 34°35' E 135°25'0 0.0
2018-Feb-17 16:30N 34°35' E 135°25'0 0.0
2018-Feb-17 15:57N 34°35' E 135°25'0 0.0
2018-Feb-17 15:27N 34°35' E 135°25'0 0.0
2018-Feb-17 15:00N 34°35' E 135°25'2 3.5
2018-Feb-17 14:30N 34°36' E 135°24'510.0
2018-Feb-17 14:00N 34°36' E 135°18'510.3
2018-Feb-17 13:31N 34°36' E 135°12'510.6
2018-Feb-17 13:01N 34°37' E 135°05'4 8.4
2018-Feb-17 12:30N 34°38' E 135°00'4 8.5
2018-Feb-17 12:00N 34°37' E 134°55'4 8.0
2018-Feb-17 11:31N 34°38' E 134°51'5 9.6
2018-Feb-17 11:00N 34°38' E 134°45'20 0.7
2018-Feb-16 06:39N 34°26' E 134°24'3 9.0
2018-Feb-16 06:22N 34°27' E 134°27'3 9.3
2018-Feb-16 06:01N 34°28' E 134°31'5 9.1
2018-Feb-16 05:30N 34°30' E 134°36'5 9.0
2018-Feb-16 05:00N 34°32' E 134°41'5 9.2
2018-Feb-16 04:30N 34°33' E 134°47'5 9.2
2018-Feb-16 03:59N 34°35' E 134°52'4 9.2
2018-Feb-16 03:31N 34°37' E 134°57'4 8.4
2018-Feb-16 02:59N 34°37' E 135°02'5 9.9
2018-Feb-16 02:31N 34°37' E 135°08'510.0
2018-Feb-16 02:00N 34°37' E 135°14'5 9.5
2018-Feb-16 01:30N 34°37' E 135°20'5 9.0
2018-Feb-16 00:59N 34°35' E 135°25'1 2.3
2018-Feb-16 00:28N 34°34' E 135°26'0 0.0
2018-Feb-15 23:58N 34°34' E 135°26'0 0.0
2018-Feb-15 23:16N 34°34' E 135°26'0 0.0
2018-Feb-15 22:58N 34°34' E 135°26'0 0.1
2018-Feb-15 22:30N 34°34' E 135°26'0 0.8
2018-Feb-15 22:00N 34°35' E 135°25'0 0.0
2018-Feb-15 21:30N 34°35' E 135°25'0 0.0
2018-Feb-15 21:00N 34°35' E 135°25'0 0.0
2018-Feb-15 20:30N 34°35' E 135°25'0 0.0
2018-Feb-15 20:00N 34°35' E 135°25'0 0.0
2018-Feb-15 19:30N 34°35' E 135°25'0 0.0
2018-Feb-15 19:00N 34°35' E 135°25'0 0.0
2018-Feb-15 18:30N 34°35' E 135°25'0 0.0
2018-Feb-15 18:00N 34°35' E 135°25'0 0.0
2018-Feb-15 17:30N 34°35' E 135°25'0 0.0
2018-Feb-15 17:00N 34°35' E 135°25'0 0.0
2018-Feb-15 16:30N 34°35' E 135°25'0 0.0
2018-Feb-15 16:00N 34°35' E 135°25'0 0.0
2018-Feb-15 15:30N 34°35' E 135°25'0 0.0
2018-Feb-15 15:00N 34°35' E 135°25'0 0.0
2018-Feb-15 14:30N 34°35' E 135°25'0 0.0
2018-Feb-15 14:00N 34°35' E 135°25'0 0.0
2018-Feb-15 13:29N 34°35' E 135°25'0 0.0
2018-Feb-15 12:59N 34°35' E 135°25'1 2.2
2018-Feb-15 12:30N 34°36' E 135°25'4 8.2
2018-Feb-15 12:00N 34°33' E 135°21'5 9.5
2018-Feb-15 11:30N 34°30' E 135°17'5 9.6
2018-Feb-15 11:00N 34°27' E 135°12'5 9.9
2018-Feb-15 10:30N 34°23' E 135°08'510.4
2018-Feb-15 10:00N 34°19' E 135°05'610.6
2018-Feb-15 09:28N 34°13' E 135°03'5 9.9
2018-Feb-15 08:59N 34°09' E 135°03'610.3
2018-Feb-15 08:27N 34°03' E 135°02'11 2.0
2018-Feb-15 02:55N 33°52' E 135°02'5 8.2
2018-Feb-15 02:18N 33°57' E 135°02'3 9.8
2018-Feb-15 01:58N 34°00' E 135°03'4 9.4
2018-Feb-15 01:31N 34°04' E 135°04'4 8.4
2018-Feb-15 01:00N 34°07' E 135°07'0 0.0
2018-Feb-14 04:55N 34°08' E 135°08'4 9.4
2018-Feb-14 04:29N 34°11' E 135°05'5 9.7
2018-Feb-14 04:00N 34°16' E 135°03'510.6
2018-Feb-14 03:30N 34°20' E 135°06'5 9.8
2018-Feb-14 03:01N 34°24' E 135°09'5 9.6
2018-Feb-14 02:28N 34°28' E 135°14'4 9.2
2018-Feb-14 02:00N 34°31' E 135°18'5 9.1
2018-Feb-14 01:30N 34°34' E 135°22'3 6.6
2018-Feb-14 01:00N 34°35' E 135°25'1 1.6
2018-Feb-14 00:29N 34°34' E 135°26'0 0.0
2018-Feb-13 23:59N 34°34' E 135°26'0 0.0
2018-Feb-13 23:26N 34°34' E 135°26'0 0.0
2018-Feb-13 22:56N 34°34' E 135°26'0 0.2
2018-Feb-13 22:29N 34°34' E 135°26'1 1.3
2018-Feb-13 21:55N 34°35' E 135°25'0 0.0
2018-Feb-13 21:30N 34°35' E 135°25'0 0.0
2018-Feb-13 21:00N 34°35' E 135°25'0 0.0
2018-Feb-13 20:30N 34°35' E 135°25'0 0.0
2018-Feb-13 20:00N 34°35' E 135°25'0 0.0
2018-Feb-13 19:30N 34°35' E 135°25'0 0.0
2018-Feb-13 19:00N 34°35' E 135°25'0 0.1
2018-Feb-13 18:30N 34°35' E 135°25'0 0.0
2018-Feb-13 18:00N 34°35' E 135°25'0 0.0
2018-Feb-13 17:30N 34°35' E 135°25'0 0.0
2018-Feb-13 17:00N 34°35' E 135°25'0 0.0
2018-Feb-13 16:31N 34°35' E 135°25'3 5.7
2018-Feb-13 16:00N 34°34' E 135°22'510.1
2018-Feb-13 15:30N 34°31' E 135°17'510.1
2018-Feb-13 15:00N 34°27' E 135°13'5 9.6
2018-Feb-13 14:30N 34°24' E 135°09'5 9.4
2018-Feb-13 14:00N 34°20' E 135°05'4 8.6
2018-Feb-13 13:31N 34°16' E 135°03'5 9.2
2018-Feb-13 13:00N 34°12' E 135°01'5 9.6
2018-Feb-13 12:30N 34°08' E 134°58'  
Track history (hours):
 
Tides and Currents Weather Stations Pressure Air Temp Water Temp Dewpoint Dewpoint Depression Visibility Wind Speed Wind Dir Waves Ship Positions

Jinjya Maru

Last reported at 2018-Feb-23 02:34 UTC. Time now 2018-Feb-23 22:33 UTC.
Position N 34°11' E 132°36'.

Length 48 m.

Type: Tanker. MMSI: 431300336.

Date/timePositionNaut miles runAvg speedWind from/ knotsBaromVisibWave heightAir tempDewpointWater temp
2018-Feb-23 02:34N 34°11' E 132°36'111.0
2018-Feb-23 02:30N 34°11' E 132°35'4 9.0
2018-Feb-23 02:01N 34°13' E 132°31'510.5
2018-Feb-23 01:30N 34°19' E 132°29'3 6.2
2018-Feb-23 00:57N 34°22' E 132°31'0 0.0
2018-Feb-23 00:27N 34°22' E 132°31'0 0.0
2018-Feb-22 23:58N 34°22' E 132°31'0 0.0
2018-Feb-22 23:28N 34°22' E 132°31'2 4.7
2018-Feb-22 23:00N 34°20' E 132°29'1 2.0
2018-Feb-22 22:31N 34°19' E 132°29'0 0.1
2018-Feb-22 22:01N 34°19' E 132°29'0 0.1
2018-Feb-22 21:25N 34°19' E 132°29'0 0.1
2018-Feb-22 21:01N 34°19' E 132°29'0 0.0
2018-Feb-22 20:28N 34°19' E 132°29'0 0.1
2018-Feb-22 20:00N 34°19' E 132°29'0 0.1
2018-Feb-22 19:30N 34°19' E 132°29'0 0.0
2018-Feb-22 19:00N 34°19' E 132°29'0 0.1
2018-Feb-22 18:30N 34°19' E 132°29'0 0.0
2018-Feb-22 18:00N 34°19' E 132°29'0 0.0
2018-Feb-22 17:30N 34°19' E 132°29'0 0.0
2018-Feb-22 17:00N 34°19' E 132°29'4 7.2
2018-Feb-22 16:29N 34°15' E 132°31'4 8.7
2018-Feb-22 16:00N 34°11' E 132°32'96 8.8
2018-Feb-22 05:06N 34°27' E 134°27'310.1
2018-Feb-22 04:51N 34°28' E 134°30'410.3
2018-Feb-22 04:28N 34°30' E 134°34'510.3
2018-Feb-22 04:00N 34°31' E 134°39'510.5
2018-Feb-22 03:30N 34°33' E 134°45'611.7
2018-Feb-22 02:59N 34°36' E 134°52'612.1
2018-Feb-22 02:30N 34°37' E 134°59'611.2
2018-Feb-22 01:59N 34°36' E 135°06'510.3
2018-Feb-22 01:30N 34°36' E 135°12'510.0
2018-Feb-22 01:00N 34°36' E 135°18'510.0
2018-Feb-22 00:30N 34°36' E 135°24'2 4.7
2018-Feb-21 23:59N 34°34' E 135°26'0 0.0
2018-Feb-21 23:29N 34°34' E 135°26'0 0.0
2018-Feb-21 22:59N 34°34' E 135°26'0 0.1
2018-Feb-21 22:30N 34°34' E 135°26'0 0.7
2018-Feb-21 21:52N 34°35' E 135°25'0 0.0
2018-Feb-21 21:28N 34°35' E 135°25'0 0.0
2018-Feb-21 20:55N 34°35' E 135°25'0 0.0
2018-Feb-21 20:30N 34°35' E 135°25'0 0.0
2018-Feb-21 20:00N 34°35' E 135°25'0 0.0
2018-Feb-21 19:27N 34°35' E 135°25'0 0.0
2018-Feb-21 19:00N 34°35' E 135°25'0 0.0
2018-Feb-21 18:30N 34°35' E 135°25'0 0.0
2018-Feb-21 17:57N 34°35' E 135°25'0 0.0
2018-Feb-21 17:30N 34°35' E 135°25'0 0.0
2018-Feb-21 17:00N 34°35' E 135°25'0 0.0
2018-Feb-21 16:30N 34°35' E 135°25'3 6.2
2018-Feb-21 16:00N 34°36' E 135°22'5 9.5
2018-Feb-21 15:30N 34°36' E 135°16'5 9.6
2018-Feb-21 15:00N 34°36' E 135°11'510.0
2018-Feb-21 14:30N 34°36' E 135°05'4 7.6
2018-Feb-21 14:00N 34°37' E 135°00'4 8.2
2018-Feb-21 13:30N 34°36' E 134°55'4 9.0
2018-Feb-21 13:00N 34°34' E 134°51'5 9.3
2018-Feb-21 12:30N 34°32' E 134°45'5 9.7
2018-Feb-21 12:00N 34°30' E 134°40'5 9.6
2018-Feb-21 11:27N 34°28' E 134°34'99 6.9
2018-Feb-20 20:58N 33°51' E 132°42'3 1.3
2018-Feb-20 18:52N 33°54' E 132°42'410.3
2018-Feb-20 18:29N 33°58' E 132°44'93 7.8
2018-Feb-20 06:38N 34°28' E 134°30'1 8.9
2018-Feb-20 06:30N 34°29' E 134°31'4 9.0
2018-Feb-20 06:00N 34°30' E 134°36'4 8.9
2018-Feb-20 05:30N 34°32' E 134°41'5 9.5
2018-Feb-20 04:59N 34°33' E 134°47'510.2
2018-Feb-20 04:30N 34°35' E 134°52'510.2
2018-Feb-20 04:00N 34°37' E 134°58'510.1
2018-Feb-20 03:30N 34°36' E 135°04'5 9.2
2018-Feb-20 03:00N 34°36' E 135°10'5 9.3
2018-Feb-20 02:30N 34°37' E 135°15'5 9.3
2018-Feb-20 02:00N 34°36' E 135°21'4 7.5
2018-Feb-20 01:29N 34°35' E 135°25'0 0.0
2018-Feb-20 01:00N 34°35' E 135°25'1 1.5
2018-Feb-20 00:29N 34°34' E 135°26'0 0.0
2018-Feb-19 23:59N 34°34' E 135°26'0 0.0
2018-Feb-19 23:29N 34°34' E 135°26'0 0.0
2018-Feb-19 22:59N 34°34' E 135°26'0 0.1
2018-Feb-19 22:28N 34°34' E 135°26'0 0.8
2018-Feb-19 21:57N 34°35' E 135°25'0 0.0
2018-Feb-19 21:21N 34°35' E 135°25'0 0.0
2018-Feb-19 20:57N 34°35' E 135°25'0 0.0
2018-Feb-19 20:30N 34°35' E 135°25'0 0.0
2018-Feb-19 19:57N 34°35' E 135°25'0 0.0
2018-Feb-19 19:27N 34°35' E 135°25'0 0.3
2018-Feb-19 19:00N 34°35' E 135°25'3 6.1
2018-Feb-19 18:30N 34°34' E 135°22'5 9.6
2018-Feb-19 18:00N 34°31' E 135°17'5 9.4
2018-Feb-19 17:30N 34°27' E 135°13'5 9.4
2018-Feb-19 17:00N 34°24' E 135°09'5 9.3
2018-Feb-19 16:31N 34°20' E 135°06'5 9.1
2018-Feb-19 16:00N 34°16' E 135°03'5 9.8
2018-Feb-19 15:29N 34°12' E 135°00'6 9.8
2018-Feb-19 14:52N 34°06' E 134°57'4 0.1
2018-Feb-18 05:27N 34°04' E 134°54'4 9.8
2018-Feb-18 05:00N 34°08' E 134°57'5 9.9
2018-Feb-18 04:29N 34°12' E 134°60'5 9.8
2018-Feb-18 04:00N 34°16' E 135°03'510.7
2018-Feb-18 03:29N 34°21' E 135°06'5 9.6
2018-Feb-18 03:00N 34°24' E 135°10'5 9.2
2018-Feb-18 02:30N 34°28' E 135°13'5 9.3
2018-Feb-18 02:00N 34°31' E 135°18'4 9.1
2018-Feb-18 01:30N 34°34' E 135°22'3 6.7
2018-Feb-18 01:00N 34°35' E 135°25'1 1.8
2018-Feb-18 00:28N 34°34' E 135°26'0 0.0
2018-Feb-17 23:58N 34°34' E 135°26'0 0.0
2018-Feb-17 23:28N 34°34' E 135°26'0 0.0
2018-Feb-17 22:58N 34°34' E 135°26'0 0.2
2018-Feb-17 22:28N 34°34' E 135°26'0 0.7
2018-Feb-17 21:56N 34°35' E 135°25'0 0.1
2018-Feb-17 21:29N 34°35' E 135°25'0 0.0
2018-Feb-17 20:59N 34°35' E 135°25'0 0.0
2018-Feb-17 20:29N 34°35' E 135°25'0 0.0
2018-Feb-17 20:00N 34°35' E 135°25'0 0.0
2018-Feb-17 19:27N 34°35' E 135°25'0 0.0
2018-Feb-17 19:00N 34°35' E 135°25'0 0.0
2018-Feb-17 18:27N 34°35' E 135°25'0 0.0
2018-Feb-17 17:57N 34°35' E 135°25'0 0.0
2018-Feb-17 17:30N 34°35' E 135°25'0 0.0
2018-Feb-17 17:00N 34°35' E 135°25'0 0.0
2018-Feb-17 16:30N 34°35' E 135°25'0 0.0
2018-Feb-17 15:57N 34°35' E 135°25'0 0.0
2018-Feb-17 15:27N 34°35' E 135°25'0 0.0
2018-Feb-17 15:00N 34°35' E 135°25'2 3.5
2018-Feb-17 14:30N 34°36' E 135°24'510.0
2018-Feb-17 14:00N 34°36' E 135°18'510.3
2018-Feb-17 13:31N 34°36' E 135°12'510.6
2018-Feb-17 13:01N 34°37' E 135°05'4 8.4
2018-Feb-17 12:30N 34°38' E 135°00'4 8.5
2018-Feb-17 12:00N 34°37' E 134°55'4 8.0
2018-Feb-17 11:31N 34°38' E 134°51'5 9.6
2018-Feb-17 11:00N 34°38' E 134°45'20 0.7
2018-Feb-16 06:39N 34°26' E 134°24'3 9.0
2018-Feb-16 06:22N 34°27' E 134°27'3 9.3
2018-Feb-16 06:01N 34°28' E 134°31'5 9.1
2018-Feb-16 05:30N 34°30' E 134°36'5 9.0
2018-Feb-16 05:00N 34°32' E 134°41'5 9.2
2018-Feb-16 04:30N 34°33' E 134°47'5 9.2
2018-Feb-16 03:59N 34°35' E 134°52'4 9.2
2018-Feb-16 03:31N 34°37' E 134°57'4 8.4
2018-Feb-16 02:59N 34°37' E 135°02'5 9.9
2018-Feb-16 02:31N 34°37' E 135°08'510.0
2018-Feb-16 02:00N 34°37' E 135°14'5 9.5
2018-Feb-16 01:30N 34°37' E 135°20'5 9.0
2018-Feb-16 00:59N 34°35' E 135°25'1 2.3
2018-Feb-16 00:28N 34°34' E 135°26'0 0.0
2018-Feb-15 23:58N 34°34' E 135°26'0 0.0
2018-Feb-15 23:16N 34°34' E 135°26'0 0.0
2018-Feb-15 22:58N 34°34' E 135°26'0 0.1
2018-Feb-15 22:30N 34°34' E 135°26'0 0.8
2018-Feb-15 22:00N 34°35' E 135°25'0 0.0
2018-Feb-15 21:30N 34°35' E 135°25'0 0.0
2018-Feb-15 21:00N 34°35' E 135°25'0 0.0
2018-Feb-15 20:30N 34°35' E 135°25'0 0.0
2018-Feb-15 20:00N 34°35' E 135°25'0 0.0
2018-Feb-15 19:30N 34°35' E 135°25'0 0.0
2018-Feb-15 19:00N 34°35' E 135°25'0 0.0
2018-Feb-15 18:30N 34°35' E 135°25'0 0.0
2018-Feb-15 18:00N 34°35' E 135°25'0 0.0
2018-Feb-15 17:30N 34°35' E 135°25'0 0.0
2018-Feb-15 17:00N 34°35' E 135°25'0 0.0
2018-Feb-15 16:30N 34°35' E 135°25'0 0.0
2018-Feb-15 16:00N 34°35' E 135°25'0 0.0
2018-Feb-15 15:30N 34°35' E 135°25'0 0.0
2018-Feb-15 15:00N 34°35' E 135°25'0 0.0
2018-Feb-15 14:30N 34°35' E 135°25'0 0.0
2018-Feb-15 14:00N 34°35' E 135°25'0 0.0
2018-Feb-15 13:29N 34°35' E 135°25'0 0.0
2018-Feb-15 12:59N 34°35' E 135°25'1 2.2
2018-Feb-15 12:30N 34°36' E 135°25'4 8.2
2018-Feb-15 12:00N 34°33' E 135°21'5 9.5
2018-Feb-15 11:30N 34°30' E 135°17'5 9.6
2018-Feb-15 11:00N 34°27' E 135°12'5 9.9
2018-Feb-15 10:30N 34°23' E 135°08'510.4
2018-Feb-15 10:00N 34°19' E 135°05'610.6
2018-Feb-15 09:28N 34°13' E 135°03'5 9.9
2018-Feb-15 08:59N 34°09' E 135°03'610.3
2018-Feb-15 08:27N 34°03' E 135°02'11 2.0
2018-Feb-15 02:55N 33°52' E 135°02'5 8.2
2018-Feb-15 02:18N 33°57' E 135°02'3 9.8
2018-Feb-15 01:58N 34°00' E 135°03'4 9.4
2018-Feb-15 01:31N 34°04' E 135°04'4 8.4
2018-Feb-15 01:00N 34°07' E 135°07'0 0.0
2018-Feb-14 04:55N 34°08' E 135°08'4 9.4
2018-Feb-14 04:29N 34°11' E 135°05'5 9.7
2018-Feb-14 04:00N 34°16' E 135°03'510.6
2018-Feb-14 03:30N 34°20' E 135°06'5 9.8
2018-Feb-14 03:01N 34°24' E 135°09'5 9.6
2018-Feb-14 02:28N 34°28' E 135°14'4 9.2
2018-Feb-14 02:00N 34°31' E 135°18'5 9.1
2018-Feb-14 01:30N 34°34' E 135°22'3 6.6
2018-Feb-14 01:00N 34°35' E 135°25'1 1.6
2018-Feb-14 00:29N 34°34' E 135°26'0 0.0
2018-Feb-13 23:59N 34°34' E 135°26'0 0.0
2018-Feb-13 23:26N 34°34' E 135°26'0 0.0
2018-Feb-13 22:56N 34°34' E 135°26'0 0.2
2018-Feb-13 22:29N 34°34' E 135°26'1 1.3
2018-Feb-13 21:55N 34°35' E 135°25'0 0.0
2018-Feb-13 21:30N 34°35' E 135°25'0 0.0
2018-Feb-13 21:00N 34°35' E 135°25'0 0.0
2018-Feb-13 20:30N 34°35' E 135°25'0 0.0
2018-Feb-13 20:00N 34°35' E 135°25'0 0.0
2018-Feb-13 19:30N 34°35' E 135°25'0 0.0
2018-Feb-13 19:00N 34°35' E 135°25'0 0.1
2018-Feb-13 18:30N 34°35' E 135°25'0 0.0
2018-Feb-13 18:00N 34°35' E 135°25'0 0.0
2018-Feb-13 17:30N 34°35' E 135°25'0 0.0
2018-Feb-13 17:00N 34°35' E 135°25'0 0.0
2018-Feb-13 16:31N 34°35' E 135°25'3 5.7
2018-Feb-13 16:00N 34°34' E 135°22'510.1
2018-Feb-13 15:30N 34°31' E 135°17'510.1
2018-Feb-13 15:00N 34°27' E 135°13'5 9.6
2018-Feb-13 14:30N 34°24' E 135°09'5 9.4
2018-Feb-13 14:00N 34°20' E 135°05'4 8.6
2018-Feb-13 13:31N 34°16' E 135°03'5 9.2
2018-Feb-13 13:00N 34°12' E 135°01'5 9.6
2018-Feb-13 12:30N 34°08' E 134°58'  

Dump ship's entire track history